sensor_id;sensor_type;location;lat;lon;timestamp;P1;durP1;ratioP1;P2;durP2;ratioP2
76290;SDS011;65100;46.884;17.410;2023-01-16T09:26:29;5.15;;;2.53;;
76290;SDS011;65100;46.884;17.410;2023-01-16T09:28:55;5.80;;;2.70;;
76290;SDS011;65100;46.884;17.410;2023-01-16T09:31:21;6.53;;;2.50;;
76290;SDS011;65100;46.884;17.410;2023-01-16T09:33:46;6.07;;;2.70;;
76290;SDS011;65100;46.884;17.410;2023-01-16T09:36:13;8.07;;;3.13;;
76290;SDS011;65100;46.884;17.410;2023-01-16T09:38:39;7.37;;;2.70;;
76290;SDS011;65100;46.884;17.410;2023-01-16T09:41:04;7.03;;;3.13;;
76290;SDS011;65100;46.884;17.410;2023-01-16T09:43:41;9.17;;;3.43;;
76290;SDS011;65100;46.884;17.410;2023-01-16T09:46:23;11.77;;;5.00;;
76290;SDS011;65100;46.884;17.410;2023-01-16T09:48:56;11.05;;;3.58;;
76290;SDS011;65100;46.884;17.410;2023-01-16T09:51:34;16.33;;;7.20;;
76290;SDS011;65100;46.884;17.410;2023-01-16T09:54:15;6.80;;;3.38;;
76290;SDS011;65100;46.884;17.410;2023-01-16T09:57:03;8.60;;;3.63;;
76290;SDS011;65100;46.884;17.410;2023-01-16T09:59:55;6.82;;;3.33;;
76290;SDS011;65100;46.884;17.410;2023-01-16T10:02:25;7.40;;;3.60;;
76290;SDS011;65100;46.884;17.410;2023-01-16T10:04:53;7.28;;;3.20;;
76290;SDS011;65100;46.884;17.410;2023-01-16T10:24:02;7.20;;;2.90;;
76290;SDS011;65100;46.884;17.410;2023-01-16T10:26:59;8.40;;;3.30;;
76290;SDS011;65100;46.884;17.410;2023-01-16T10:29:44;6.90;;;3.53;;
76290;SDS011;65100;46.884;17.410;2023-01-16T10:32:32;7.78;;;3.65;;
76290;SDS011;65100;46.884;17.410;2023-01-16T10:35:12;7.30;;;3.85;;
76290;SDS011;65100;46.884;17.410;2023-01-16T10:37:42;9.43;;;4.90;;
76290;SDS011;65100;46.884;17.410;2023-01-16T10:40:18;10.00;;;4.82;;
76290;SDS011;65100;46.884;17.410;2023-01-16T10:42:54;9.77;;;4.57;;
76290;SDS011;65100;46.884;17.410;2023-01-16T10:45:53;9.23;;;4.45;;
76290;SDS011;65100;46.884;17.410;2023-01-16T10:48:54;8.18;;;4.35;;
76290;SDS011;65100;46.884;17.410;2023-01-16T10:51:39;8.60;;;4.57;;
76290;SDS011;65100;46.884;17.410;2023-01-16T10:54:04;11.13;;;5.75;;
76290;SDS011;65100;46.884;17.410;2023-01-16T10:56:30;9.13;;;4.57;;
76290;SDS011;65100;46.884;17.410;2023-01-16T10:58:58;10.95;;;5.28;;
76290;SDS011;65100;46.884;17.410;2023-01-16T11:01:23;8.07;;;3.83;;
76290;SDS011;65100;46.884;17.410;2023-01-16T11:03:51;8.20;;;3.85;;
76290;SDS011;65100;46.884;17.410;2023-01-16T11:06:21;8.23;;;4.05;;
76290;SDS011;65100;46.884;17.410;2023-01-16T11:09:00;7.93;;;3.85;;
76290;SDS011;65100;46.884;17.410;2023-01-16T11:11:26;7.45;;;3.45;;
76290;SDS011;65100;46.884;17.410;2023-01-16T11:14:14;8.40;;;3.80;;
76290;SDS011;65100;46.884;17.410;2023-01-16T11:17:32;6.72;;;3.78;;
76290;SDS011;65100;46.884;17.410;2023-01-16T11:20:19;8.23;;;4.30;;
76290;SDS011;65100;46.884;17.410;2023-01-16T11:22:47;12.18;;;5.90;;
76290;SDS011;65100;46.884;17.410;2023-01-16T11:25:16;10.50;;;5.35;;
76290;SDS011;65100;46.884;17.410;2023-01-16T11:27:45;9.70;;;4.50;;
76290;SDS011;65100;46.884;17.410;2023-01-16T11:30:15;8.35;;;4.60;;
76290;SDS011;65100;46.884;17.410;2023-01-16T11:32:44;9.48;;;3.85;;
76290;SDS011;65100;46.884;17.410;2023-01-16T11:35:13;8.15;;;3.65;;
76290;SDS011;65100;46.884;17.410;2023-01-16T11:37:44;8.95;;;4.20;;
76290;SDS011;65100;46.884;17.410;2023-01-16T11:40:18;16.20;;;7.83;;
76290;SDS011;65100;46.884;17.410;2023-01-16T11:42:56;9.65;;;4.57;;
76290;SDS011;65100;46.884;17.410;2023-01-16T11:45:47;10.50;;;5.07;;
76290;SDS011;65100;46.884;17.410;2023-01-16T11:48:38;10.30;;;4.43;;
76290;SDS011;65100;46.884;17.410;2023-01-16T11:51:06;9.68;;;4.88;;
76290;SDS011;65100;46.884;17.410;2023-01-16T11:53:37;9.07;;;4.00;;
76290;SDS011;65100;46.884;17.410;2023-01-16T11:58:42;9.60;;;4.55;;
76290;SDS011;65100;46.884;17.410;2023-01-16T12:04:24;12.63;;;5.60;;
76290;SDS011;65100;46.884;17.410;2023-01-16T12:09:52;11.82;;;5.68;;
76290;SDS011;65100;46.884;17.410;2023-01-16T12:12:40;11.43;;;5.43;;
76290;SDS011;65100;46.884;17.410;2023-01-16T12:15:38;10.70;;;5.35;;
76290;SDS011;65100;46.884;17.410;2023-01-16T12:23:50;13.38;;;5.45;;
76290;SDS011;65100;46.884;17.410;2023-01-16T12:26:30;11.20;;;5.53;;
76290;SDS011;65100;46.884;17.410;2023-01-16T12:31:47;11.13;;;5.47;;
76290;SDS011;65100;46.884;17.410;2023-01-16T12:36:54;10.98;;;4.80;;
76290;SDS011;65100;46.884;17.410;2023-01-16T12:39:43;11.77;;;4.80;;
76290;SDS011;65100;46.884;17.410;2023-01-16T12:56:28;11.57;;;5.38;;
76290;SDS011;65100;46.884;17.410;2023-01-16T12:59:25;11.60;;;6.00;;
76290;SDS011;65100;46.884;17.410;2023-01-16T13:01:55;12.30;;;6.55;;
76290;SDS011;65100;46.884;17.410;2023-01-16T13:04:28;11.27;;;5.28;;
76290;SDS011;65100;46.884;17.410;2023-01-16T13:06:59;12.32;;;5.65;;
76290;SDS011;65100;46.884;17.410;2023-01-16T13:12:17;15.67;;;7.70;;
76290;SDS011;65100;46.884;17.410;2023-01-16T13:15:10;14.85;;;6.68;;
76290;SDS011;65100;46.884;17.410;2023-01-16T13:17:49;12.95;;;6.05;;
76290;SDS011;65100;46.884;17.410;2023-01-16T13:20:19;12.00;;;5.63;;
76290;SDS011;65100;46.884;17.410;2023-01-16T13:22:51;13.85;;;6.88;;
76290;SDS011;65100;46.884;17.410;2023-01-16T13:25:29;13.03;;;6.73;;
76290;SDS011;65100;46.884;17.410;2023-01-16T13:28:16;13.63;;;6.43;;
76290;SDS011;65100;46.884;17.410;2023-01-16T13:30:50;13.48;;;6.45;;
76290;SDS011;65100;46.884;17.410;2023-01-16T13:33:18;14.65;;;7.30;;
76290;SDS011;65100;46.884;17.410;2023-01-16T13:36:04;19.15;;;9.60;;
76290;SDS011;65100;46.884;17.410;2023-01-16T13:38:47;15.60;;;7.87;;
76290;SDS011;65100;46.884;17.410;2023-01-16T13:41:35;14.30;;;7.57;;
76290;SDS011;65100;46.884;17.410;2023-01-16T13:44:16;14.93;;;8.23;;
76290;SDS011;65100;46.884;17.410;2023-01-16T13:47:09;20.33;;;10.27;;
76290;SDS011;65100;46.884;17.410;2023-01-16T13:49:37;15.60;;;8.00;;
76290;SDS011;65100;46.884;17.410;2023-01-16T13:52:04;17.40;;;8.37;;
76290;SDS011;65100;46.884;17.410;2023-01-16T13:54:43;15.88;;;7.65;;
76290;SDS011;65100;46.884;17.410;2023-01-16T13:57:18;17.33;;;7.97;;
76290;SDS011;65100;46.884;17.410;2023-01-16T13:59:47;16.45;;;7.85;;
76290;SDS011;65100;46.884;17.410;2023-01-16T14:03:00;14.73;;;7.70;;
76290;SDS011;65100;46.884;17.410;2023-01-16T14:13:18;17.77;;;8.68;;
76290;SDS011;65100;46.884;17.410;2023-01-16T14:18:36;18.77;;;8.43;;
76290;SDS011;65100;46.884;17.410;2023-01-16T14:24:04;38.65;;;16.35;;
76290;SDS011;65100;46.884;17.410;2023-01-16T14:29:49;21.90;;;11.15;;
76290;SDS011;65100;46.884;17.410;2023-01-16T14:32:20;19.53;;;10.80;;
76290;SDS011;65100;46.884;17.410;2023-01-16T14:37:41;19.38;;;9.90;;
76290;SDS011;65100;46.884;17.410;2023-01-16T14:42:40;18.80;;;9.97;;
76290;SDS011;65100;46.884;17.410;2023-01-16T14:45:35;18.08;;;9.57;;
76290;SDS011;65100;46.884;17.410;2023-01-16T14:53:52;20.85;;;10.63;;
76290;SDS011;65100;46.884;17.410;2023-01-16T14:56:42;20.30;;;10.68;;
76290;SDS011;65100;46.884;17.410;2023-01-16T14:59:14;21.30;;;11.07;;
76290;SDS011;65100;46.884;17.410;2023-01-16T15:01:47;30.67;;;14.73;;
76290;SDS011;65100;46.884;17.410;2023-01-16T15:04:55;37.27;;;17.20;;
76290;SDS011;65100;46.884;17.410;2023-01-16T15:07:31;34.97;;;17.75;;
76290;SDS011;65100;46.884;17.410;2023-01-16T15:10:14;47.35;;;22.85;;
76290;SDS011;65100;46.884;17.410;2023-01-16T15:12:43;41.55;;;20.20;;
76290;SDS011;65100;46.884;17.410;2023-01-16T15:15:26;36.22;;;17.95;;
76290;SDS011;65100;46.884;17.410;2023-01-16T15:17:55;39.37;;;19.87;;
76290;SDS011;65100;46.884;17.410;2023-01-16T15:20:44;31.98;;;16.20;;
76290;SDS011;65100;46.884;17.410;2023-01-16T15:23:36;31.33;;;14.68;;
76290;SDS011;65100;46.884;17.410;2023-01-16T15:31:28;26.70;;;10.57;;
76290;SDS011;65100;46.884;17.410;2023-01-16T15:33:58;24.52;;;10.90;;
76290;SDS011;65100;46.884;17.410;2023-01-16T15:42:04;21.55;;;8.25;;
76290;SDS011;65100;46.884;17.410;2023-01-16T15:44:57;20.40;;;8.50;;
76290;SDS011;65100;46.884;17.410;2023-01-16T15:50:21;22.40;;;8.90;;
76290;SDS011;65100;46.884;17.410;2023-01-16T15:52:53;23.13;;;9.15;;
76290;SDS011;65100;46.884;17.410;2023-01-16T15:55:20;22.70;;;9.20;;
76290;SDS011;65100;46.884;17.410;2023-01-16T15:57:52;21.20;;;8.80;;
76290;SDS011;65100;46.884;17.410;2023-01-16T16:02:59;20.90;;;9.27;;
76290;SDS011;65100;46.884;17.410;2023-01-16T16:05:50;19.83;;;7.88;;
76290;SDS011;65100;46.884;17.410;2023-01-16T16:08:22;20.45;;;9.23;;
76290;SDS011;65100;46.884;17.410;2023-01-16T16:10:50;21.83;;;8.77;;
76290;SDS011;65100;46.884;17.410;2023-01-16T16:13:36;20.75;;;8.43;;
76290;SDS011;65100;46.884;17.410;2023-01-16T16:16:03;22.37;;;8.43;;
76290;SDS011;65100;46.884;17.410;2023-01-16T16:18:58;22.27;;;8.25;;
76290;SDS011;65100;46.884;17.410;2023-01-16T16:21:25;22.02;;;8.48;;
76290;SDS011;65100;46.884;17.410;2023-01-16T16:24:23;22.38;;;9.25;;
76290;SDS011;65100;46.884;17.410;2023-01-16T16:26:48;19.70;;;8.57;;
76290;SDS011;65100;46.884;17.410;2023-01-16T16:29:17;18.88;;;7.28;;
76290;SDS011;65100;46.884;17.410;2023-01-16T16:31:44;23.07;;;8.97;;
76290;SDS011;65100;46.884;17.410;2023-01-16T16:34:15;20.13;;;7.80;;
76290;SDS011;65100;46.884;17.410;2023-01-16T16:36:45;18.40;;;7.85;;
76290;SDS011;65100;46.884;17.410;2023-01-16T16:41:59;20.35;;;8.45;;
76290;SDS011;65100;46.884;17.410;2023-01-16T16:44:45;20.67;;;8.27;;
76290;SDS011;65100;46.884;17.410;2023-01-16T16:47:28;22.40;;;8.38;;
76290;SDS011;65100;46.884;17.410;2023-01-16T16:49:56;18.15;;;8.13;;
76290;SDS011;65100;46.884;17.410;2023-01-16T16:52:29;20.05;;;8.55;;
76290;SDS011;65100;46.884;17.410;2023-01-16T16:54:56;20.15;;;9.60;;
76290;SDS011;65100;46.884;17.410;2023-01-16T16:57:23;17.30;;;7.83;;
76290;SDS011;65100;46.884;17.410;2023-01-16T16:59:50;16.70;;;6.70;;
76290;SDS011;65100;46.884;17.410;2023-01-16T17:02:18;16.38;;;8.10;;
76290;SDS011;65100;46.884;17.410;2023-01-16T17:04:44;15.15;;;6.70;;
76290;SDS011;65100;46.884;17.410;2023-01-16T17:07:10;15.53;;;7.33;;
76290;SDS011;65100;46.884;17.410;2023-01-16T17:09:35;16.23;;;7.22;;
76290;SDS011;65100;46.884;17.410;2023-01-16T17:12:12;13.80;;;6.33;;
76290;SDS011;65100;46.884;17.410;2023-01-16T17:14:42;14.40;;;7.50;;
76290;SDS011;65100;46.884;17.410;2023-01-16T17:17:12;15.75;;;8.20;;
76290;SDS011;65100;46.884;17.410;2023-01-16T17:19:40;17.92;;;7.80;;
76290;SDS011;65100;46.884;17.410;2023-01-16T17:22:06;16.63;;;8.10;;
76290;SDS011;65100;46.884;17.410;2023-01-16T17:24:31;17.07;;;8.53;;
76290;SDS011;65100;46.884;17.410;2023-01-16T17:26:57;15.60;;;7.65;;
76290;SDS011;65100;46.884;17.410;2023-01-16T17:29:22;17.20;;;7.27;;
76290;SDS011;65100;46.884;17.410;2023-01-16T17:31:48;17.77;;;7.73;;
76290;SDS011;65100;46.884;17.410;2023-01-16T17:34:14;15.82;;;7.82;;
76290;SDS011;65100;46.884;17.410;2023-01-16T17:36:41;15.63;;;7.60;;
76290;SDS011;65100;46.884;17.410;2023-01-16T17:39:07;16.20;;;7.45;;
76290;SDS011;65100;46.884;17.410;2023-01-16T17:41:34;15.13;;;7.73;;
76290;SDS011;65100;46.884;17.410;2023-01-16T17:44:17;15.90;;;7.85;;
76290;SDS011;65100;46.884;17.410;2023-01-16T17:47:05;15.40;;;7.22;;
76290;SDS011;65100;46.884;17.410;2023-01-16T17:49:31;15.13;;;7.32;;
76290;SDS011;65100;46.884;17.410;2023-01-16T17:52:17;15.13;;;6.57;;
76290;SDS011;65100;46.884;17.410;2023-01-16T17:54:43;16.40;;;6.90;;
76290;SDS011;65100;46.884;17.410;2023-01-16T17:57:27;13.30;;;6.78;;
76290;SDS011;65100;46.884;17.410;2023-01-16T17:59:52;16.43;;;7.50;;
76290;SDS011;65100;46.884;17.410;2023-01-16T18:02:18;15.87;;;7.30;;
76290;SDS011;65100;46.884;17.410;2023-01-16T18:04:43;14.65;;;6.60;;
76290;SDS011;65100;46.884;17.410;2023-01-16T18:07:09;12.13;;;5.90;;
76290;SDS011;65100;46.884;17.410;2023-01-16T18:09:34;16.17;;;6.93;;
76290;SDS011;65100;46.884;17.410;2023-01-16T18:12:01;16.52;;;6.85;;
76290;SDS011;65100;46.884;17.410;2023-01-16T18:14:45;17.45;;;7.20;;
76290;SDS011;65100;46.884;17.410;2023-01-16T18:17:29;16.67;;;8.25;;
76290;SDS011;65100;46.884;17.410;2023-01-16T18:19:55;14.23;;;6.07;;
76290;SDS011;65100;46.884;17.410;2023-01-16T18:22:23;15.40;;;7.60;;
76290;SDS011;65100;46.884;17.410;2023-01-16T18:24:49;17.23;;;7.07;;
76290;SDS011;65100;46.884;17.410;2023-01-16T18:27:16;15.30;;;6.63;;
76290;SDS011;65100;46.884;17.410;2023-01-16T18:29:42;16.85;;;7.32;;
76290;SDS011;65100;46.884;17.410;2023-01-16T18:32:09;15.43;;;7.00;;
76290;SDS011;65100;46.884;17.410;2023-01-16T18:37:20;16.95;;;7.78;;
76290;SDS011;65100;46.884;17.410;2023-01-16T18:39:50;14.07;;;6.78;;
76290;SDS011;65100;46.884;17.410;2023-01-16T18:42:33;15.20;;;7.07;;
76290;SDS011;65100;46.884;17.410;2023-01-16T18:45:17;15.87;;;6.80;;
76290;SDS011;65100;46.884;17.410;2023-01-16T18:48:01;15.18;;;6.20;;
76290;SDS011;65100;46.884;17.410;2023-01-16T18:50:46;13.43;;;6.13;;
76290;SDS011;65100;46.884;17.410;2023-01-16T18:53:33;14.95;;;7.45;;
76290;SDS011;65100;46.884;17.410;2023-01-16T18:56:20;16.30;;;7.18;;
76290;SDS011;65100;46.884;17.410;2023-01-16T18:59:24;17.13;;;7.20;;
76290;SDS011;65100;46.884;17.410;2023-01-16T19:04:37;17.98;;;8.38;;
76290;SDS011;65100;46.884;17.410;2023-01-16T19:07:07;18.73;;;8.07;;
76290;SDS011;65100;46.884;17.410;2023-01-16T19:09:40;18.35;;;7.97;;
76290;SDS011;65100;46.884;17.410;2023-01-16T19:12:07;18.50;;;8.45;;
76290;SDS011;65100;46.884;17.410;2023-01-16T19:14:36;19.23;;;8.25;;
76290;SDS011;65100;46.884;17.410;2023-01-16T19:17:05;17.98;;;8.32;;
76290;SDS011;65100;46.884;17.410;2023-01-16T19:19:31;19.60;;;7.63;;
76290;SDS011;65100;46.884;17.410;2023-01-16T19:21:57;20.60;;;8.30;;
76290;SDS011;65100;46.884;17.410;2023-01-16T19:24:23;18.15;;;8.70;;
76290;SDS011;65100;46.884;17.410;2023-01-16T19:26:52;19.13;;;8.45;;
76290;SDS011;65100;46.884;17.410;2023-01-16T19:29:18;21.25;;;8.60;;
76290;SDS011;65100;46.884;17.410;2023-01-16T19:31:45;21.55;;;9.57;;
76290;SDS011;65100;46.884;17.410;2023-01-16T19:34:11;20.57;;;8.43;;
76290;SDS011;65100;46.884;17.410;2023-01-16T19:36:37;20.52;;;8.20;;
76290;SDS011;65100;46.884;17.410;2023-01-16T19:39:05;21.77;;;9.32;;
76290;SDS011;65100;46.884;17.410;2023-01-16T19:41:34;22.63;;;8.63;;
76290;SDS011;65100;46.884;17.410;2023-01-16T19:44:19;26.27;;;10.47;;
76290;SDS011;65100;46.884;17.410;2023-01-16T19:47:03;22.90;;;9.50;;
76290;SDS011;65100;46.884;17.410;2023-01-16T19:49:29;23.70;;;9.70;;
76290;SDS011;65100;46.884;17.410;2023-01-16T19:51:55;25.38;;;9.57;;
76290;SDS011;65100;46.884;17.410;2023-01-16T19:54:21;21.17;;;9.40;;
76290;SDS011;65100;46.884;17.410;2023-01-16T19:56:47;23.20;;;9.18;;
76290;SDS011;65100;46.884;17.410;2023-01-16T19:59:13;23.58;;;9.20;;
76290;SDS011;65100;46.884;17.410;2023-01-16T20:07:26;24.55;;;9.65;;
76290;SDS011;65100;46.884;17.410;2023-01-16T20:09:52;23.97;;;9.30;;
76290;SDS011;65100;46.884;17.410;2023-01-16T20:12:17;23.70;;;9.13;;
76290;SDS011;65100;46.884;17.410;2023-01-16T20:14:51;22.60;;;9.77;;
76290;SDS011;65100;46.884;17.410;2023-01-16T20:17:18;21.58;;;9.18;;
76290;SDS011;65100;46.884;17.410;2023-01-16T20:19:46;22.83;;;8.98;;
76290;SDS011;65100;46.884;17.410;2023-01-16T20:22:12;22.87;;;9.63;;
76290;SDS011;65100;46.884;17.410;2023-01-16T20:24:37;22.93;;;8.53;;
76290;SDS011;65100;46.884;17.410;2023-01-16T20:27:04;21.33;;;9.18;;
76290;SDS011;65100;46.884;17.410;2023-01-16T20:29:31;20.98;;;8.45;;
76290;SDS011;65100;46.884;17.410;2023-01-16T20:31:57;20.90;;;9.07;;
76290;SDS011;65100;46.884;17.410;2023-01-16T20:34:23;19.93;;;7.97;;
76290;SDS011;65100;46.884;17.410;2023-01-16T20:36:50;21.13;;;8.98;;
76290;SDS011;65100;46.884;17.410;2023-01-16T20:39:16;21.40;;;9.50;;
76290;SDS011;65100;46.884;17.410;2023-01-16T20:41:42;21.65;;;8.55;;
76290;SDS011;65100;46.884;17.410;2023-01-16T20:44:27;19.55;;;8.30;;
76290;SDS011;65100;46.884;17.410;2023-01-16T20:47:12;19.97;;;7.60;;
76290;SDS011;65100;46.884;17.410;2023-01-16T20:49:39;16.88;;;6.75;;
76290;SDS011;65100;46.884;17.410;2023-01-16T20:52:06;16.63;;;7.15;;
76290;SDS011;65100;46.884;17.410;2023-01-16T20:54:33;15.30;;;6.38;;
76290;SDS011;65100;46.884;17.410;2023-01-16T20:56:59;15.20;;;6.90;;
76290;SDS011;65100;46.884;17.410;2023-01-16T20:59:25;15.93;;;7.17;;
76290;SDS011;65100;46.884;17.410;2023-01-16T21:01:51;15.35;;;6.18;;
76290;SDS011;65100;46.884;17.410;2023-01-16T21:04:18;13.77;;;6.10;;
76290;SDS011;65100;46.884;17.410;2023-01-16T21:06:45;14.45;;;6.40;;
76290;SDS011;65100;46.884;17.410;2023-01-16T21:09:12;15.02;;;6.57;;
76290;SDS011;65100;46.884;17.410;2023-01-16T21:11:39;15.98;;;6.35;;
76290;SDS011;65100;46.884;17.410;2023-01-16T21:14:24;17.60;;;7.68;;
76290;SDS011;65100;46.884;17.410;2023-01-16T21:16:50;15.60;;;6.53;;
76290;SDS011;65100;46.884;17.410;2023-01-16T21:19:35;16.67;;;7.57;;
76290;SDS011;65100;46.884;17.410;2023-01-16T21:22:22;17.25;;;7.72;;
76290;SDS011;65100;46.884;17.410;2023-01-16T21:24:50;17.47;;;7.23;;
76290;SDS011;65100;46.884;17.410;2023-01-16T21:27:17;16.63;;;6.93;;
76290;SDS011;65100;46.884;17.410;2023-01-16T21:29:44;15.38;;;7.15;;
76290;SDS011;65100;46.884;17.410;2023-01-16T21:32:10;18.08;;;7.00;;
76290;SDS011;65100;46.884;17.410;2023-01-16T21:34:36;17.47;;;6.70;;
76290;SDS011;65100;46.884;17.410;2023-01-16T21:37:02;17.42;;;7.35;;
76290;SDS011;65100;46.884;17.410;2023-01-16T21:39:28;17.45;;;7.25;;
76290;SDS011;65100;46.884;17.410;2023-01-16T21:41:54;17.13;;;7.75;;
76290;SDS011;65100;46.884;17.410;2023-01-16T21:44:38;19.70;;;9.38;;
76290;SDS011;65100;46.884;17.410;2023-01-16T21:47:22;18.53;;;7.83;;
76290;SDS011;65100;46.884;17.410;2023-01-16T21:49:49;18.48;;;7.90;;
76290;SDS011;65100;46.884;17.410;2023-01-16T21:52:15;17.15;;;7.45;;
76290;SDS011;65100;46.884;17.410;2023-01-16T21:54:41;15.83;;;7.23;;
76290;SDS011;65100;46.884;17.410;2023-01-16T21:57:06;18.77;;;8.27;;
76290;SDS011;65100;46.884;17.410;2023-01-16T21:59:32;19.17;;;8.40;;
76290;SDS011;65100;46.884;17.410;2023-01-16T22:01:57;18.97;;;8.63;;
76290;SDS011;65100;46.884;17.410;2023-01-16T22:04:23;18.13;;;7.28;;
76290;SDS011;65100;46.884;17.410;2023-01-16T22:06:48;20.40;;;8.17;;
76290;SDS011;65100;46.884;17.410;2023-01-16T22:09:15;18.08;;;6.45;;
76290;SDS011;65100;46.884;17.410;2023-01-16T22:11:41;18.45;;;8.32;;
76290;SDS011;65100;46.884;17.410;2023-01-16T22:14:26;20.05;;;8.00;;
76290;SDS011;65100;46.884;17.410;2023-01-16T22:17:10;19.47;;;8.37;;
76290;SDS011;65100;46.884;17.410;2023-01-16T22:19:56;18.27;;;7.05;;
76290;SDS011;65100;46.884;17.410;2023-01-16T22:22:41;18.23;;;7.93;;
76290;SDS011;65100;46.884;17.410;2023-01-16T22:25:13;17.88;;;7.63;;
76290;SDS011;65100;46.884;17.410;2023-01-16T22:27:39;18.07;;;7.73;;
76290;SDS011;65100;46.884;17.410;2023-01-16T22:30:05;19.42;;;7.80;;
76290;SDS011;65100;46.884;17.410;2023-01-16T22:32:30;18.53;;;8.23;;
76290;SDS011;65100;46.884;17.410;2023-01-16T22:34:56;21.75;;;7.85;;
76290;SDS011;65100;46.884;17.410;2023-01-16T22:37:21;19.17;;;7.73;;
76290;SDS011;65100;46.884;17.410;2023-01-16T22:39:47;17.73;;;8.00;;
76290;SDS011;65100;46.884;17.410;2023-01-16T22:42:13;18.88;;;7.90;;
76290;SDS011;65100;46.884;17.410;2023-01-16T22:44:43;21.07;;;8.10;;
76290;SDS011;65100;46.884;17.410;2023-01-16T22:47:27;19.80;;;7.35;;
76290;SDS011;65100;46.884;17.410;2023-01-16T22:49:53;15.80;;;7.13;;
76290;SDS011;65100;46.884;17.410;2023-01-16T22:52:19;16.37;;;7.03;;
76290;SDS011;65100;46.884;17.410;2023-01-16T22:54:45;18.58;;;7.65;;
76290;SDS011;65100;46.884;17.410;2023-01-16T22:57:11;19.13;;;7.85;;
76290;SDS011;65100;46.884;17.410;2023-01-16T22:59:37;17.83;;;7.50;;
76290;SDS011;65100;46.884;17.410;2023-01-16T23:02:02;19.13;;;8.10;;
76290;SDS011;65100;46.884;17.410;2023-01-16T23:04:29;19.77;;;7.90;;
76290;SDS011;65100;46.884;17.410;2023-01-16T23:06:54;18.40;;;7.53;;
76290;SDS011;65100;46.884;17.410;2023-01-16T23:09:20;18.40;;;7.90;;
76290;SDS011;65100;46.884;17.410;2023-01-16T23:11:46;19.47;;;8.30;;
76290;SDS011;65100;46.884;17.410;2023-01-16T23:14:14;17.93;;;7.67;;
76290;SDS011;65100;46.884;17.410;2023-01-16T23:16:42;17.08;;;7.60;;
76290;SDS011;65100;46.884;17.410;2023-01-16T23:19:10;20.98;;;8.25;;
76290;SDS011;65100;46.884;17.410;2023-01-16T23:21:38;18.27;;;8.13;;
76290;SDS011;65100;46.884;17.410;2023-01-16T23:24:04;17.67;;;7.33;;
76290;SDS011;65100;46.884;17.410;2023-01-16T23:26:31;17.15;;;7.25;;
76290;SDS011;65100;46.884;17.410;2023-01-16T23:28:59;17.40;;;7.85;;
76290;SDS011;65100;46.884;17.410;2023-01-16T23:31:25;16.23;;;7.23;;
76290;SDS011;65100;46.884;17.410;2023-01-16T23:33:54;15.95;;;6.50;;
76290;SDS011;65100;46.884;17.410;2023-01-16T23:36:20;17.30;;;7.93;;
76290;SDS011;65100;46.884;17.410;2023-01-16T23:38:48;16.67;;;7.20;;
76290;SDS011;65100;46.884;17.410;2023-01-16T23:41:15;17.40;;;7.85;;
76290;SDS011;65100;46.884;17.410;2023-01-16T23:43:42;15.82;;;7.47;;
76290;SDS011;65100;46.884;17.410;2023-01-16T23:46:34;17.95;;;7.97;;
76290;SDS011;65100;46.884;17.410;2023-01-16T23:49:01;18.63;;;7.37;;
76290;SDS011;65100;46.884;17.410;2023-01-16T23:51:28;16.38;;;7.45;;
76290;SDS011;65100;46.884;17.410;2023-01-16T23:53:53;16.88;;;7.90;;
76290;SDS011;65100;46.884;17.410;2023-01-16T23:56:19;18.53;;;8.63;;
76290;SDS011;65100;46.884;17.410;2023-01-16T23:58:45;19.17;;;8.48;;
